sensor_id;sensor_type;location;lat;lon;timestamp;P1;durP1;ratioP1;P2;durP2;ratioP2
1955;SDS011;978;48.314;11.562;2022-08-25T00:02:29;9.50;;;1.10;;
1955;SDS011;978;48.314;11.562;2022-08-25T00:04:56;9.37;;;0.80;;
1955;SDS011;978;48.314;11.562;2022-08-25T00:07:22;9.37;;;0.80;;
1955;SDS011;978;48.314;11.562;2022-08-25T00:09:49;9.50;;;0.97;;
1955;SDS011;978;48.314;11.562;2022-08-25T00:12:17;9.27;;;1.00;;
1955;SDS011;978;48.314;11.562;2022-08-25T00:14:44;8.87;;;1.10;;
1955;SDS011;978;48.314;11.562;2022-08-25T00:17:11;9.60;;;1.10;;
1955;SDS011;978;48.314;11.562;2022-08-25T00:19:39;8.93;;;0.83;;
1955;SDS011;978;48.314;11.562;2022-08-25T00:22:06;9.33;;;0.90;;
1955;SDS011;978;48.314;11.562;2022-08-25T00:24:34;9.30;;;1.03;;
1955;SDS011;978;48.314;11.562;2022-08-25T00:27:01;9.17;;;0.87;;
1955;SDS011;978;48.314;11.562;2022-08-25T00:29:31;9.10;;;1.30;;
1955;SDS011;978;48.314;11.562;2022-08-25T00:32:02;9.50;;;0.80;;
1955;SDS011;978;48.314;11.562;2022-08-25T00:34:31;9.57;;;1.20;;
1955;SDS011;978;48.314;11.562;2022-08-25T00:36:59;9.70;;;1.20;;
1955;SDS011;978;48.314;11.562;2022-08-25T00:39:27;9.17;;;0.90;;
1955;SDS011;978;48.314;11.562;2022-08-25T00:41:54;9.27;;;1.10;;
1955;SDS011;978;48.314;11.562;2022-08-25T00:44:22;9.57;;;1.00;;
1955;SDS011;978;48.314;11.562;2022-08-25T00:46:52;9.23;;;0.73;;
1955;SDS011;978;48.314;11.562;2022-08-25T00:49:23;9.50;;;1.00;;
1955;SDS011;978;48.314;11.562;2022-08-25T00:51:54;9.30;;;0.70;;
1955;SDS011;978;48.314;11.562;2022-08-25T00:54:27;9.60;;;0.80;;
1955;SDS011;978;48.314;11.562;2022-08-25T00:56:57;9.27;;;0.90;;
1955;SDS011;978;48.314;11.562;2022-08-25T00:59:25;9.40;;;1.00;;
1955;SDS011;978;48.314;11.562;2022-08-25T01:01:55;9.20;;;0.90;;
1955;SDS011;978;48.314;11.562;2022-08-25T01:04:22;9.60;;;1.13;;
1955;SDS011;978;48.314;11.562;2022-08-25T01:06:50;9.40;;;0.80;;
1955;SDS011;978;48.314;11.562;2022-08-25T01:09:17;9.57;;;0.90;;
1955;SDS011;978;48.314;11.562;2022-08-25T01:11:45;9.37;;;0.90;;
1955;SDS011;978;48.314;11.562;2022-08-25T01:14:14;9.47;;;1.00;;
1955;SDS011;978;48.314;11.562;2022-08-25T01:16:44;9.33;;;0.90;;
1955;SDS011;978;48.314;11.562;2022-08-25T01:19:13;9.00;;;0.77;;
1955;SDS011;978;48.314;11.562;2022-08-25T01:21:44;9.50;;;0.80;;
1955;SDS011;978;48.314;11.562;2022-08-25T01:24:15;9.33;;;0.90;;
1955;SDS011;978;48.314;11.562;2022-08-25T01:26:47;9.27;;;0.93;;
1955;SDS011;978;48.314;11.562;2022-08-25T01:29:14;9.30;;;1.20;;
1955;SDS011;978;48.314;11.562;2022-08-25T01:31:49;9.40;;;1.10;;
1955;SDS011;978;48.314;11.562;2022-08-25T01:34:21;10.00;;;1.10;;
1955;SDS011;978;48.314;11.562;2022-08-25T01:36:51;9.50;;;0.80;;
1955;SDS011;978;48.314;11.562;2022-08-25T01:39:18;9.13;;;0.80;;
1955;SDS011;978;48.314;11.562;2022-08-25T01:41:53;9.30;;;0.90;;
1955;SDS011;978;48.314;11.562;2022-08-25T01:44:28;9.47;;;1.20;;
1955;SDS011;978;48.314;11.562;2022-08-25T01:46:55;9.27;;;0.80;;
1955;SDS011;978;48.314;11.562;2022-08-25T01:49:22;9.40;;;1.00;;
1955;SDS011;978;48.314;11.562;2022-08-25T01:51:52;9.13;;;0.80;;
1955;SDS011;978;48.314;11.562;2022-08-25T01:54:22;9.20;;;0.80;;
1955;SDS011;978;48.314;11.562;2022-08-25T01:56:49;9.13;;;0.70;;
1955;SDS011;978;48.314;11.562;2022-08-25T01:59:16;9.17;;;1.00;;
1955;SDS011;978;48.314;11.562;2022-08-25T02:01:46;9.27;;;0.80;;
1955;SDS011;978;48.314;11.562;2022-08-25T02:04:14;9.37;;;0.80;;
1955;SDS011;978;48.314;11.562;2022-08-25T02:06:42;9.50;;;0.80;;
1955;SDS011;978;48.314;11.562;2022-08-25T02:09:15;9.17;;;0.90;;
1955;SDS011;978;48.314;11.562;2022-08-25T02:11:45;9.50;;;0.70;;
1955;SDS011;978;48.314;11.562;2022-08-25T02:14:13;9.50;;;1.20;;
1955;SDS011;978;48.314;11.562;2022-08-25T02:16:43;9.40;;;1.00;;
1955;SDS011;978;48.314;11.562;2022-08-25T02:19:13;9.50;;;0.80;;
1955;SDS011;978;48.314;11.562;2022-08-25T02:21:42;9.20;;;0.80;;
1955;SDS011;978;48.314;11.562;2022-08-25T02:24:15;9.80;;;1.03;;
1955;SDS011;978;48.314;11.562;2022-08-25T02:26:44;9.10;;;0.90;;
1955;SDS011;978;48.314;11.562;2022-08-25T02:29:11;9.40;;;1.00;;
1955;SDS011;978;48.314;11.562;2022-08-25T02:31:42;9.60;;;0.90;;
1955;SDS011;978;48.314;11.562;2022-08-25T02:34:12;9.10;;;1.00;;
1955;SDS011;978;48.314;11.562;2022-08-25T02:36:43;9.20;;;1.00;;
1955;SDS011;978;48.314;11.562;2022-08-25T02:39:13;9.60;;;1.10;;
1955;SDS011;978;48.314;11.562;2022-08-25T02:41:44;9.50;;;1.10;;
1955;SDS011;978;48.314;11.562;2022-08-25T02:44:14;9.00;;;0.83;;
1955;SDS011;978;48.314;11.562;2022-08-25T02:46:43;9.30;;;1.00;;
1955;SDS011;978;48.314;11.562;2022-08-25T02:49:09;9.43;;;0.87;;
1955;SDS011;978;48.314;11.562;2022-08-25T02:51:37;9.40;;;1.00;;
1955;SDS011;978;48.314;11.562;2022-08-25T02:54:04;9.07;;;1.00;;
1955;SDS011;978;48.314;11.562;2022-08-25T02:56:32;9.30;;;0.90;;
1955;SDS011;978;48.314;11.562;2022-08-25T02:58:59;9.60;;;0.80;;
1955;SDS011;978;48.314;11.562;2022-08-25T03:01:27;9.43;;;0.97;;
1955;SDS011;978;48.314;11.562;2022-08-25T03:03:54;9.17;;;0.90;;
1955;SDS011;978;48.314;11.562;2022-08-25T03:06:21;9.27;;;0.90;;
1955;SDS011;978;48.314;11.562;2022-08-25T03:08:50;9.20;;;0.70;;
1955;SDS011;978;48.314;11.562;2022-08-25T03:11:19;9.70;;;1.10;;
1955;SDS011;978;48.314;11.562;2022-08-25T03:13:49;9.30;;;0.87;;
1955;SDS011;978;48.314;11.562;2022-08-25T03:16:17;9.87;;;1.00;;
1955;SDS011;978;48.314;11.562;2022-08-25T03:18:46;9.43;;;1.00;;
1955;SDS011;978;48.314;11.562;2022-08-25T03:21:14;8.97;;;0.70;;
1955;SDS011;978;48.314;11.562;2022-08-25T03:23:43;9.40;;;0.90;;
1955;SDS011;978;48.314;11.562;2022-08-25T03:26:14;9.40;;;1.10;;
1955;SDS011;978;48.314;11.562;2022-08-25T03:28:59;9.40;;;1.00;;
1955;SDS011;978;48.314;11.562;2022-08-25T03:31:30;9.50;;;1.17;;
1955;SDS011;978;48.314;11.562;2022-08-25T03:33:58;9.40;;;0.80;;
1955;SDS011;978;48.314;11.562;2022-08-25T03:36:25;9.37;;;0.97;;
1955;SDS011;978;48.314;11.562;2022-08-25T03:38:52;9.20;;;0.80;;
1955;SDS011;978;48.314;11.562;2022-08-25T03:41:21;9.20;;;0.80;;
1955;SDS011;978;48.314;11.562;2022-08-25T03:43:52;9.43;;;0.90;;
1955;SDS011;978;48.314;11.562;2022-08-25T03:46:23;10.03;;;1.47;;
1955;SDS011;978;48.314;11.562;2022-08-25T03:48:52;9.17;;;1.00;;
1955;SDS011;978;48.314;11.562;2022-08-25T03:51:21;9.27;;;0.87;;
1955;SDS011;978;48.314;11.562;2022-08-25T03:53:50;9.30;;;0.77;;
1955;SDS011;978;48.314;11.562;2022-08-25T03:56:19;9.13;;;0.90;;
1955;SDS011;978;48.314;11.562;2022-08-25T03:58:48;9.30;;;0.80;;
1955;SDS011;978;48.314;11.562;2022-08-25T04:01:18;9.30;;;0.90;;
1955;SDS011;978;48.314;11.562;2022-08-25T04:03:48;9.40;;;0.90;;
1955;SDS011;978;48.314;11.562;2022-08-25T04:06:19;9.33;;;0.83;;
1955;SDS011;978;48.314;11.562;2022-08-25T04:08:48;9.30;;;0.87;;
1955;SDS011;978;48.314;11.562;2022-08-25T04:11:18;9.27;;;0.90;;
1955;SDS011;978;48.314;11.562;2022-08-25T04:13:48;9.37;;;1.00;;
1955;SDS011;978;48.314;11.562;2022-08-25T04:16:19;9.33;;;0.80;;
1955;SDS011;978;48.314;11.562;2022-08-25T04:18:51;9.33;;;1.10;;
1955;SDS011;978;48.314;11.562;2022-08-25T04:21:20;9.17;;;0.80;;
1955;SDS011;978;48.314;11.562;2022-08-25T04:23:49;9.30;;;0.90;;
1955;SDS011;978;48.314;11.562;2022-08-25T04:26:19;10.00;;;1.07;;
1955;SDS011;978;48.314;11.562;2022-08-25T04:28:53;9.33;;;0.83;;
1955;SDS011;978;48.314;11.562;2022-08-25T04:31:22;9.27;;;0.97;;
1955;SDS011;978;48.314;11.562;2022-08-25T04:33:52;9.23;;;0.80;;
1955;SDS011;978;48.314;11.562;2022-08-25T04:36:20;9.27;;;0.80;;
1955;SDS011;978;48.314;11.562;2022-08-25T04:38:50;8.97;;;0.80;;
1955;SDS011;978;48.314;11.562;2022-08-25T04:41:21;9.17;;;0.80;;
1955;SDS011;978;48.314;11.562;2022-08-25T04:43:51;9.33;;;1.00;;
1955;SDS011;978;48.314;11.562;2022-08-25T04:46:23;9.37;;;0.90;;
1955;SDS011;978;48.314;11.562;2022-08-25T04:48:54;9.60;;;1.00;;
1955;SDS011;978;48.314;11.562;2022-08-25T04:51:23;9.23;;;1.00;;
1955;SDS011;978;48.314;11.562;2022-08-25T04:53:54;9.50;;;1.17;;
1955;SDS011;978;48.314;11.562;2022-08-25T04:56:25;9.23;;;0.87;;
1955;SDS011;978;48.314;11.562;2022-08-25T04:58:54;9.60;;;0.90;;
1955;SDS011;978;48.314;11.562;2022-08-25T05:01:22;9.10;;;0.80;;
1955;SDS011;978;48.314;11.562;2022-08-25T05:03:56;9.27;;;0.80;;
1955;SDS011;978;48.314;11.562;2022-08-25T05:06:26;9.37;;;0.90;;
1955;SDS011;978;48.314;11.562;2022-08-25T05:08:55;9.40;;;1.10;;
1955;SDS011;978;48.314;11.562;2022-08-25T05:11:23;10.10;;;1.53;;
1955;SDS011;978;48.314;11.562;2022-08-25T05:13:52;9.47;;;1.00;;
1955;SDS011;978;48.314;11.562;2022-08-25T05:16:22;9.20;;;0.80;;
1955;SDS011;978;48.314;11.562;2022-08-25T05:18:52;9.20;;;0.70;;
1955;SDS011;978;48.314;11.562;2022-08-25T05:21:23;9.67;;;1.00;;
1955;SDS011;978;48.314;11.562;2022-08-25T05:23:54;9.40;;;0.80;;
1955;SDS011;978;48.314;11.562;2022-08-25T05:26:24;9.47;;;1.00;;
1955;SDS011;978;48.314;11.562;2022-08-25T05:28:56;9.37;;;0.90;;
1955;SDS011;978;48.314;11.562;2022-08-25T05:31:26;9.37;;;0.90;;
1955;SDS011;978;48.314;11.562;2022-08-25T05:33:55;9.30;;;1.00;;
1955;SDS011;978;48.314;11.562;2022-08-25T05:36:29;9.40;;;0.80;;
1955;SDS011;978;48.314;11.562;2022-08-25T05:38:57;9.17;;;0.90;;
1955;SDS011;978;48.314;11.562;2022-08-25T05:41:27;9.50;;;0.90;;
1955;SDS011;978;48.314;11.562;2022-08-25T05:43:56;9.57;;;1.03;;
1955;SDS011;978;48.314;11.562;2022-08-25T05:46:25;9.50;;;0.90;;
1955;SDS011;978;48.314;11.562;2022-08-25T05:48:53;9.37;;;0.80;;
1955;SDS011;978;48.314;11.562;2022-08-25T05:51:21;9.37;;;0.80;;
1955;SDS011;978;48.314;11.562;2022-08-25T05:53:49;9.07;;;0.80;;
1955;SDS011;978;48.314;11.562;2022-08-25T05:56:17;9.40;;;1.07;;
1955;SDS011;978;48.314;11.562;2022-08-25T05:58:44;9.10;;;0.80;;
1955;SDS011;978;48.314;11.562;2022-08-25T06:01:20;9.60;;;1.10;;
1955;SDS011;978;48.314;11.562;2022-08-25T06:04:05;9.40;;;0.77;;
1955;SDS011;978;48.314;11.562;2022-08-25T06:06:32;9.20;;;0.90;;
1955;SDS011;978;48.314;11.562;2022-08-25T06:09:02;9.50;;;0.80;;
1955;SDS011;978;48.314;11.562;2022-08-25T06:11:32;9.53;;;0.80;;
1955;SDS011;978;48.314;11.562;2022-08-25T06:14:01;9.57;;;1.00;;
1955;SDS011;978;48.314;11.562;2022-08-25T06:16:29;9.57;;;1.00;;
1955;SDS011;978;48.314;11.562;2022-08-25T06:18:58;9.43;;;0.70;;
1955;SDS011;978;48.314;11.562;2022-08-25T06:21:26;9.60;;;0.90;;
1955;SDS011;978;48.314;11.562;2022-08-25T06:23:54;9.40;;;0.80;;
1955;SDS011;978;48.314;11.562;2022-08-25T06:26:25;9.53;;;1.20;;
1955;SDS011;978;48.314;11.562;2022-08-25T06:28:52;9.17;;;0.90;;
1955;SDS011;978;48.314;11.562;2022-08-25T06:31:19;9.70;;;1.10;;
1955;SDS011;978;48.314;11.562;2022-08-25T06:33:47;9.50;;;1.00;;
1955;SDS011;978;48.314;11.562;2022-08-25T06:36:14;9.67;;;0.93;;
1955;SDS011;978;48.314;11.562;2022-08-25T06:38:41;9.30;;;0.80;;
1955;SDS011;978;48.314;11.562;2022-08-25T06:41:08;9.43;;;0.90;;
1955;SDS011;978;48.314;11.562;2022-08-25T06:43:38;9.30;;;0.77;;
1955;SDS011;978;48.314;11.562;2022-08-25T06:46:09;9.47;;;0.80;;
1955;SDS011;978;48.314;11.562;2022-08-25T06:48:36;9.60;;;1.00;;
1955;SDS011;978;48.314;11.562;2022-08-25T06:51:04;9.47;;;0.90;;
1955;SDS011;978;48.314;11.562;2022-08-25T06:53:33;9.50;;;1.10;;
1955;SDS011;978;48.314;11.562;2022-08-25T06:56:01;9.37;;;0.87;;
1955;SDS011;978;48.314;11.562;2022-08-25T06:58:30;9.33;;;1.00;;
1955;SDS011;978;48.314;11.562;2022-08-25T07:01:06;9.60;;;0.90;;
1955;SDS011;978;48.314;11.562;2022-08-25T07:03:34;9.43;;;0.80;;
1955;SDS011;978;48.314;11.562;2022-08-25T07:06:02;9.30;;;0.97;;
1955;SDS011;978;48.314;11.562;2022-08-25T07:08:31;9.80;;;1.00;;
1955;SDS011;978;48.314;11.562;2022-08-25T07:11:03;9.27;;;1.07;;
1955;SDS011;978;48.314;11.562;2022-08-25T07:13:32;9.63;;;0.90;;
1955;SDS011;978;48.314;11.562;2022-08-25T07:16:02;9.23;;;0.93;;
1955;SDS011;978;48.314;11.562;2022-08-25T07:18:33;9.27;;;0.93;;
1955;SDS011;978;48.314;11.562;2022-08-25T07:21:01;9.67;;;1.40;;
1955;SDS011;978;48.314;11.562;2022-08-25T07:23:30;9.23;;;0.90;;
1955;SDS011;978;48.314;11.562;2022-08-25T07:26:05;9.47;;;1.10;;
1955;SDS011;978;48.314;11.562;2022-08-25T07:28:35;9.43;;;0.90;;
1955;SDS011;978;48.314;11.562;2022-08-25T07:31:04;9.40;;;0.90;;
1955;SDS011;978;48.314;11.562;2022-08-25T07:33:34;9.60;;;1.00;;
1955;SDS011;978;48.314;11.562;2022-08-25T07:36:02;9.43;;;1.10;;
1955;SDS011;978;48.314;11.562;2022-08-25T07:38:30;9.60;;;0.90;;
1955;SDS011;978;48.314;11.562;2022-08-25T07:41:05;9.80;;;0.90;;
1955;SDS011;978;48.314;11.562;2022-08-25T07:43:32;9.80;;;1.47;;
1955;SDS011;978;48.314;11.562;2022-08-25T07:46:00;9.70;;;0.90;;
1955;SDS011;978;48.314;11.562;2022-08-25T07:48:34;9.97;;;1.13;;
1955;SDS011;978;48.314;11.562;2022-08-25T07:51:05;9.33;;;1.00;;
1955;SDS011;978;48.314;11.562;2022-08-25T07:53:33;9.77;;;0.90;;
1955;SDS011;978;48.314;11.562;2022-08-25T07:56:01;9.90;;;1.13;;
1955;SDS011;978;48.314;11.562;2022-08-25T07:58:35;10.03;;;1.70;;
1955;SDS011;978;48.314;11.562;2022-08-25T08:01:03;11.40;;;1.93;;
1955;SDS011;978;48.314;11.562;2022-08-25T08:03:31;10.37;;;1.67;;
1955;SDS011;978;48.314;11.562;2022-08-25T08:06:02;9.83;;;1.10;;
1955;SDS011;978;48.314;11.562;2022-08-25T08:08:35;9.90;;;1.20;;
1955;SDS011;978;48.314;11.562;2022-08-25T08:11:04;9.73;;;1.20;;
1955;SDS011;978;48.314;11.562;2022-08-25T08:13:32;9.83;;;1.40;;
1955;SDS011;978;48.314;11.562;2022-08-25T08:16:06;10.00;;;1.17;;
1955;SDS011;978;48.314;11.562;2022-08-25T08:18:35;9.67;;;1.30;;
1955;SDS011;978;48.314;11.562;2022-08-25T08:21:05;10.43;;;1.93;;
1955;SDS011;978;48.314;11.562;2022-08-25T08:23:36;10.37;;;1.70;;
1955;SDS011;978;48.314;11.562;2022-08-25T08:26:04;10.57;;;1.83;;
1955;SDS011;978;48.314;11.562;2022-08-25T08:28:32;9.77;;;1.50;;
1955;SDS011;978;48.314;11.562;2022-08-25T08:31:00;10.23;;;1.50;;
1955;SDS011;978;48.314;11.562;2022-08-25T08:33:27;9.80;;;1.20;;
1955;SDS011;978;48.314;11.562;2022-08-25T08:35:58;10.33;;;1.37;;
1955;SDS011;978;48.314;11.562;2022-08-25T08:38:28;10.77;;;1.60;;
1955;SDS011;978;48.314;11.562;2022-08-25T08:40:59;10.33;;;1.40;;
1955;SDS011;978;48.314;11.562;2022-08-25T08:43:53;10.20;;;1.50;;
1955;SDS011;978;48.314;11.562;2022-08-25T08:46:32;10.77;;;1.70;;
1955;SDS011;978;48.314;11.562;2022-08-25T08:49:08;10.20;;;1.60;;
1955;SDS011;978;48.314;11.562;2022-08-25T08:51:49;10.23;;;1.40;;
1955;SDS011;978;48.314;11.562;2022-08-25T08:54:22;10.73;;;1.73;;
1955;SDS011;978;48.314;11.562;2022-08-25T08:56:53;11.20;;;2.20;;
1955;SDS011;978;48.314;11.562;2022-08-25T08:59:30;10.33;;;1.50;;
1955;SDS011;978;48.314;11.562;2022-08-25T09:02:05;11.23;;;2.47;;
1955;SDS011;978;48.314;11.562;2022-08-25T09:04:42;10.70;;;1.80;;
1955;SDS011;978;48.314;11.562;2022-08-25T09:07:15;11.20;;;1.80;;
1955;SDS011;978;48.314;11.562;2022-08-25T09:09:53;10.30;;;1.50;;
1955;SDS011;978;48.314;11.562;2022-08-25T09:12:21;10.87;;;1.80;;
1955;SDS011;978;48.314;11.562;2022-08-25T09:14:59;11.07;;;1.93;;
1955;SDS011;978;48.314;11.562;2022-08-25T09:17:37;11.30;;;2.23;;
1955;SDS011;978;48.314;11.562;2022-08-25T09:20:30;11.00;;;1.60;;
1955;SDS011;978;48.314;11.562;2022-08-25T09:23:29;10.60;;;1.70;;
1955;SDS011;978;48.314;11.562;2022-08-25T09:26:28;11.50;;;1.73;;
1955;SDS011;978;48.314;11.562;2022-08-25T09:29:02;11.93;;;1.93;;
1955;SDS011;978;48.314;11.562;2022-08-25T09:31:35;11.03;;;1.53;;
1955;SDS011;978;48.314;11.562;2022-08-25T09:34:05;11.33;;;2.33;;
1955;SDS011;978;48.314;11.562;2022-08-25T09:36:42;11.13;;;1.70;;
1955;SDS011;978;48.314;11.562;2022-08-25T09:39:12;11.40;;;2.00;;
1955;SDS011;978;48.314;11.562;2022-08-25T09:41:43;11.07;;;1.97;;
1955;SDS011;978;48.314;11.562;2022-08-25T09:44:17;11.17;;;1.90;;
1955;SDS011;978;48.314;11.562;2022-08-25T09:46:56;12.30;;;2.23;;
1955;SDS011;978;48.314;11.562;2022-08-25T09:52:20;11.27;;;1.63;;
1955;SDS011;978;48.314;11.562;2022-08-25T09:54:50;11.80;;;2.33;;
1955;SDS011;978;48.314;11.562;2022-08-25T09:57:29;11.00;;;1.70;;
1955;SDS011;978;48.314;11.562;2022-08-25T10:00:12;10.97;;;1.63;;
1955;SDS011;978;48.314;11.562;2022-08-25T10:02:44;11.80;;;2.60;;
1955;SDS011;978;48.314;11.562;2022-08-25T10:05:26;11.07;;;1.70;;
1955;SDS011;978;48.314;11.562;2022-08-25T10:07:56;11.60;;;1.90;;
1955;SDS011;978;48.314;11.562;2022-08-25T10:10:27;11.37;;;2.33;;
1955;SDS011;978;48.314;11.562;2022-08-25T10:12:57;11.23;;;1.70;;
1955;SDS011;978;48.314;11.562;2022-08-25T10:15:26;11.50;;;1.93;;
1955;SDS011;978;48.314;11.562;2022-08-25T10:17:56;11.20;;;2.07;;
1955;SDS011;978;48.314;11.562;2022-08-25T10:20:54;11.80;;;1.60;;
1955;SDS011;978;48.314;11.562;2022-08-25T10:23:27;11.40;;;2.27;;
1955;SDS011;978;48.314;11.562;2022-08-25T10:25:54;11.90;;;2.27;;
1955;SDS011;978;48.314;11.562;2022-08-25T10:28:30;11.50;;;2.10;;
1955;SDS011;978;48.314;11.562;2022-08-25T10:31:05;12.03;;;1.87;;
1955;SDS011;978;48.314;11.562;2022-08-25T10:33:42;12.27;;;1.97;;
1955;SDS011;978;48.314;11.562;2022-08-25T10:36:17;11.57;;;2.00;;
1955;SDS011;978;48.314;11.562;2022-08-25T10:38:48;12.47;;;2.37;;
1955;SDS011;978;48.314;11.562;2022-08-25T10:44:15;11.47;;;1.77;;
1955;SDS011;978;48.314;11.562;2022-08-25T10:50:00;14.47;;;2.50;;
1955;SDS011;978;48.314;11.562;2022-08-25T10:52:31;11.37;;;1.90;;
1955;SDS011;978;48.314;11.562;2022-08-25T10:55:05;11.63;;;2.10;;
1955;SDS011;978;48.314;11.562;2022-08-25T10:57:41;11.73;;;2.20;;
1955;SDS011;978;48.314;11.562;2022-08-25T11:00:18;12.80;;;2.50;;
1955;SDS011;978;48.314;11.562;2022-08-25T11:05:48;12.10;;;2.00;;
1955;SDS011;978;48.314;11.562;2022-08-25T11:08:21;12.33;;;2.40;;
1955;SDS011;978;48.314;11.562;2022-08-25T11:10:59;11.70;;;2.40;;
1955;SDS011;978;48.314;11.562;2022-08-25T11:13:35;12.57;;;3.13;;
1955;SDS011;978;48.314;11.562;2022-08-25T11:16:16;11.80;;;2.27;;
1955;SDS011;978;48.314;11.562;2022-08-25T11:18:50;12.53;;;2.70;;
1955;SDS011;978;48.314;11.562;2022-08-25T11:21:23;11.60;;;1.93;;
1955;SDS011;978;48.314;11.562;2022-08-25T11:23:57;11.97;;;2.50;;
1955;SDS011;978;48.314;11.562;2022-08-25T11:26:30;12.60;;;2.60;;
1955;SDS011;978;48.314;11.562;2022-08-25T11:29:02;11.90;;;2.60;;
1955;SDS011;978;48.314;11.562;2022-08-25T11:31:35;11.37;;;2.70;;
1955;SDS011;978;48.314;11.562;2022-08-25T11:34:08;11.60;;;2.17;;
1955;SDS011;978;48.314;11.562;2022-08-25T11:36:38;11.90;;;2.60;;
1955;SDS011;978;48.314;11.562;2022-08-25T11:39:11;12.30;;;2.43;;
1955;SDS011;978;48.314;11.562;2022-08-25T11:41:46;12.43;;;2.37;;
1955;SDS011;978;48.314;11.562;2022-08-25T11:44:29;12.40;;;2.30;;
1955;SDS011;978;48.314;11.562;2022-08-25T11:47:22;11.87;;;2.20;;
1955;SDS011;978;48.314;11.562;2022-08-25T11:50:04;12.23;;;2.17;;
1955;SDS011;978;48.314;11.562;2022-08-25T11:55:24;12.20;;;2.40;;
1955;SDS011;978;48.314;11.562;2022-08-25T12:00:50;12.87;;;2.10;;
1955;SDS011;978;48.314;11.562;2022-08-25T12:03:45;12.07;;;2.57;;
1955;SDS011;978;48.314;11.562;2022-08-25T12:06:18;11.77;;;2.20;;
1955;SDS011;978;48.314;11.562;2022-08-25T12:08:52;12.20;;;2.17;;
1955;SDS011;978;48.314;11.562;2022-08-25T12:11:47;13.70;;;2.80;;
1955;SDS011;978;48.314;11.562;2022-08-25T12:17:11;11.50;;;2.00;;
1955;SDS011;978;48.314;11.562;2022-08-25T12:19:54;12.37;;;2.53;;
1955;SDS011;978;48.314;11.562;2022-08-25T12:22:39;12.00;;;2.30;;
1955;SDS011;978;48.314;11.562;2022-08-25T12:28:10;12.87;;;2.83;;
1955;SDS011;978;48.314;11.562;2022-08-25T12:30:53;12.00;;;2.23;;
1955;SDS011;978;48.314;11.562;2022-08-25T12:33:28;11.83;;;1.83;;
1955;SDS011;978;48.314;11.562;2022-08-25T12:36:08;11.80;;;2.20;;
1955;SDS011;978;48.314;11.562;2022-08-25T12:38:37;12.40;;;2.50;;
1955;SDS011;978;48.314;11.562;2022-08-25T12:41:11;11.87;;;1.90;;
1955;SDS011;978;48.314;11.562;2022-08-25T12:43:40;12.20;;;2.77;;
1955;SDS011;978;48.314;11.562;2022-08-25T12:48:58;12.30;;;2.37;;
1955;SDS011;978;48.314;11.562;2022-08-25T12:51:36;11.80;;;2.33;;
1955;SDS011;978;48.314;11.562;2022-08-25T12:54:16;12.23;;;2.33;;
1955;SDS011;978;48.314;11.562;2022-08-25T12:56:49;12.17;;;2.70;;
1955;SDS011;978;48.314;11.562;2022-08-25T12:59:21;12.17;;;2.57;;
1955;SDS011;978;48.314;11.562;2022-08-25T13:01:57;12.27;;;2.23;;
1955;SDS011;978;48.314;11.562;2022-08-25T13:04:45;12.27;;;2.53;;
1955;SDS011;978;48.314;11.562;2022-08-25T13:07:55;12.70;;;2.30;;
1955;SDS011;978;48.314;11.562;2022-08-25T13:10:43;13.43;;;3.80;;
1955;SDS011;978;48.314;11.562;2022-08-25T13:13:16;12.63;;;2.80;;
1955;SDS011;978;48.314;11.562;2022-08-25T13:15:56;12.30;;;2.50;;
1955;SDS011;978;48.314;11.562;2022-08-25T13:18:25;13.47;;;2.93;;
1955;SDS011;978;48.314;11.562;2022-08-25T13:20:58;13.10;;;3.27;;
1955;SDS011;978;48.314;11.562;2022-08-25T13:23:31;12.10;;;2.13;;
1955;SDS011;978;48.314;11.562;2022-08-25T13:26:01;12.13;;;2.53;;
1955;SDS011;978;48.314;11.562;2022-08-25T13:28:29;12.53;;;2.43;;
1955;SDS011;978;48.314;11.562;2022-08-25T13:30:59;13.93;;;2.80;;
1955;SDS011;978;48.314;11.562;2022-08-25T13:33:30;12.10;;;2.50;;
1955;SDS011;978;48.314;11.562;2022-08-25T13:35:58;12.03;;;2.40;;
1955;SDS011;978;48.314;11.562;2022-08-25T13:38:46;12.27;;;2.73;;
1955;SDS011;978;48.314;11.562;2022-08-25T13:41:22;11.80;;;2.40;;
1955;SDS011;978;48.314;11.562;2022-08-25T13:43:51;11.77;;;2.70;;
1955;SDS011;978;48.314;11.562;2022-08-25T13:46:22;12.10;;;2.23;;
1955;SDS011;978;48.314;11.562;2022-08-25T13:48:50;12.40;;;2.30;;
1955;SDS011;978;48.314;11.562;2022-08-25T13:51:28;12.93;;;3.10;;
1955;SDS011;978;48.314;11.562;2022-08-25T13:53:58;13.60;;;3.47;;
1955;SDS011;978;48.314;11.562;2022-08-25T13:56:29;12.00;;;2.20;;
1955;SDS011;978;48.314;11.562;2022-08-25T13:58:59;12.00;;;2.10;;
1955;SDS011;978;48.314;11.562;2022-08-25T14:01:29;11.97;;;2.43;;
1955;SDS011;978;48.314;11.562;2022-08-25T14:07:03;12.60;;;2.40;;
1955;SDS011;978;48.314;11.562;2022-08-25T14:09:44;12.63;;;2.70;;
1955;SDS011;978;48.314;11.562;2022-08-25T14:12:29;11.63;;;2.00;;
1955;SDS011;978;48.314;11.562;2022-08-25T14:15:04;12.20;;;2.50;;
1955;SDS011;978;48.314;11.562;2022-08-25T14:17:34;12.40;;;2.40;;
1955;SDS011;978;48.314;11.562;2022-08-25T14:20:02;12.17;;;2.23;;
1955;SDS011;978;48.314;11.562;2022-08-25T14:22:30;12.30;;;3.07;;
1955;SDS011;978;48.314;11.562;2022-08-25T14:24:59;11.67;;;2.30;;
1955;SDS011;978;48.314;11.562;2022-08-25T14:27:27;12.20;;;2.20;;
1955;SDS011;978;48.314;11.562;2022-08-25T14:29:55;11.30;;;1.70;;
1955;SDS011;978;48.314;11.562;2022-08-25T14:32:23;11.17;;;2.00;;
1955;SDS011;978;48.314;11.562;2022-08-25T14:34:54;12.60;;;2.70;;
1955;SDS011;978;48.314;11.562;2022-08-25T14:37:22;11.47;;;2.03;;
1955;SDS011;978;48.314;11.562;2022-08-25T14:39:50;11.60;;;2.03;;
1955;SDS011;978;48.314;11.562;2022-08-25T14:42:22;12.70;;;1.93;;
1955;SDS011;978;48.314;11.562;2022-08-25T14:44:51;11.13;;;1.60;;
1955;SDS011;978;48.314;11.562;2022-08-25T14:47:18;11.77;;;1.93;;
1955;SDS011;978;48.314;11.562;2022-08-25T14:49:47;12.07;;;2.20;;
1955;SDS011;978;48.314;11.562;2022-08-25T14:52:15;11.73;;;1.90;;
1955;SDS011;978;48.314;11.562;2022-08-25T14:54:45;11.10;;;1.80;;
1955;SDS011;978;48.314;11.562;2022-08-25T14:57:12;12.10;;;2.13;;
1955;SDS011;978;48.314;11.562;2022-08-25T14:59:40;11.30;;;2.10;;
1955;SDS011;978;48.314;11.562;2022-08-25T15:02:07;13.13;;;2.87;;
1955;SDS011;978;48.314;11.562;2022-08-25T15:04:34;11.20;;;1.53;;
1955;SDS011;978;48.314;11.562;2022-08-25T15:07:02;11.90;;;2.03;;
1955;SDS011;978;48.314;11.562;2022-08-25T15:09:50;11.10;;;1.80;;
1955;SDS011;978;48.314;11.562;2022-08-25T15:12:16;11.73;;;1.50;;
1955;SDS011;978;48.314;11.562;2022-08-25T15:14:44;11.40;;;1.60;;
1955;SDS011;978;48.314;11.562;2022-08-25T15:17:11;11.23;;;1.80;;
1955;SDS011;978;48.314;11.562;2022-08-25T15:19:39;11.40;;;2.00;;
1955;SDS011;978;48.314;11.562;2022-08-25T15:22:06;11.50;;;2.40;;
1955;SDS011;978;48.314;11.562;2022-08-25T15:24:32;11.13;;;1.50;;
1955;SDS011;978;48.314;11.562;2022-08-25T15:27:02;11.40;;;2.07;;
1955;SDS011;978;48.314;11.562;2022-08-25T15:29:32;11.80;;;2.57;;
1955;SDS011;978;48.314;11.562;2022-08-25T15:32:03;11.47;;;1.77;;
1955;SDS011;978;48.314;11.562;2022-08-25T15:34:33;11.47;;;1.83;;
1955;SDS011;978;48.314;11.562;2022-08-25T15:37:05;11.63;;;2.00;;
1955;SDS011;978;48.314;11.562;2022-08-25T15:39:33;11.60;;;1.70;;
1955;SDS011;978;48.314;11.562;2022-08-25T15:42:01;10.83;;;1.80;;
1955;SDS011;978;48.314;11.562;2022-08-25T15:44:30;11.13;;;2.00;;
1955;SDS011;978;48.314;11.562;2022-08-25T15:46:58;11.20;;;1.90;;
1955;SDS011;978;48.314;11.562;2022-08-25T15:49:28;11.70;;;2.60;;
1955;SDS011;978;48.314;11.562;2022-08-25T15:51:56;10.97;;;1.40;;
1955;SDS011;978;48.314;11.562;2022-08-25T15:54:23;11.00;;;1.73;;
1955;SDS011;978;48.314;11.562;2022-08-25T15:56:51;11.30;;;1.80;;
1955;SDS011;978;48.314;11.562;2022-08-25T15:59:19;11.07;;;1.67;;
1955;SDS011;978;48.314;11.562;2022-08-25T16:01:46;11.87;;;2.80;;
1955;SDS011;978;48.314;11.562;2022-08-25T16:04:13;12.70;;;1.80;;